Time;durP1;ratioP1;P1;durP2;ratioP2;P2;SDS_P1;SDS_P2;PMS_P1;PMS_P2;Temp;Humidity;BMP_temperature;BMP_pressure;BME280_temperature;BME280_humidity;BME280_pressure;Samples;Min_cycle;Max_cycle;Signal;HPM_P1;HPM_P2
2021/04/26 00:00:28;;;;;;;2.30;1.32;;;;;;;35.38;21.18;160501.06;1854008;77;21339;-84
2021/04/26 00:03:00;;;;;;;1.87;1.20;;;;;;;35.33;21.12;160486.36;1854352;77;21374;-84
2021/04/26 00:05:33;;;;;;;2.65;1.62;;;;;;;35.28;21.15;160474.33;1854374;77;21886;-84
2021/04/26 00:08:06;;;;;;;1.87;1.20;;;;;;;35.34;21.22;160489.03;1854085;77;21320;-84
2021/04/26 00:10:38;;;;;;;2.58;1.25;;;;;;;35.23;21.27;160460.98;1853996;77;21316;-84
2021/04/26 00:13:10;;;;;;;1.45;0.90;;;;;;;35.33;21.23;160486.36;1854241;77;21178;-83
2021/04/26 00:15:44;;;;;;;4.53;1.15;;;;;;;35.27;21.30;160470.34;1887817;75;21289;-83
2021/04/26 00:18:16;;;;;;;1.67;1.10;;;;;;;35.23;21.39;160460.98;1871235;76;21120;-83
2021/04/26 00:20:48;;;;;;;1.20;0.80;;;;;;;35.26;21.18;160467.66;1920328;75;21185;-83
2021/04/26 00:23:22;;;;;;;1.00;0.90;;;;;;;35.21;21.22;160455.63;1920245;74;21297;-84
2021/04/26 00:25:55;;;;;;;2.83;1.10;;;;;;;35.25;21.43;160464.97;1920858;75;21304;-83
2021/04/26 00:28:27;;;;;;;2.47;1.45;;;;;;;35.21;21.53;160455.63;1920372;75;21288;-83
2021/04/26 00:31:02;;;;;;;2.90;1.20;;;;;;;34.93;21.61;160378.00;1909530;74;21167;-83
2021/04/26 00:33:34;;;;;;;1.85;1.20;;;;;;;34.93;21.73;160379.38;1918066;74;21189;-82
2021/04/26 00:36:07;;;;;;;1.90;1.72;;;;;;;34.85;21.78;160357.94;1926992;74;21759;-83
2021/04/26 00:38:39;;;;;;;2.10;1.65;;;;;;;34.61;21.96;160293.78;1923714;74;21277;-83
2021/04/26 00:41:11;;;;;;;1.72;1.20;;;;;;;34.51;22.19;160267.00;1920850;74;21335;-82
2021/04/26 00:43:44;;;;;;;4.42;1.47;;;;;;;34.39;22.15;160234.92;1921043;74;21417;-82
2021/04/26 00:46:16;;;;;;;3.47;1.50;;;;;;;34.28;22.33;160204.22;1920687;74;21348;-83
2021/04/26 00:48:48;;;;;;;3.15;1.40;;;;;;;34.24;22.42;160194.87;1922182;74;21269;-83
2021/04/26 00:51:21;;;;;;;2.25;1.10;;;;;;;34.47;22.40;160256.34;1920670;75;21173;-81
2021/04/26 00:53:54;;;;;;;1.25;1.07;;;;;;;34.44;22.62;160248.31;1884555;76;21300;-81
2021/04/26 00:56:28;;;;;;;2.85;1.20;;;;;;;34.33;22.82;160218.91;1907165;74;21574;-81
2021/04/26 00:59:00;;;;;;;2.00;1.47;;;;;;;34.33;22.94;160217.55;1945604;74;21317;-81
2021/04/26 01:01:33;;;;;;;1.20;1.00;;;;;;;34.15;22.99;160170.78;1865935;77;21789;-81
2021/04/26 01:04:05;;;;;;;2.75;1.12;;;;;;;34.25;23.19;160196.19;1865998;77;21337;-81
2021/04/26 01:06:37;;;;;;;1.32;1.00;;;;;;;34.38;23.22;160230.94;1938107;74;21265;-82
2021/04/26 01:09:11;;;;;;;1.67;1.10;;;;;;;34.49;22.95;160261.64;1848074;77;21729;-82
2021/04/26 01:12:22;;;;;;;1.27;0.80;;;;;;;34.53;22.89;160272.36;1895364;75;21281;-82
2021/04/26 01:15:17;;;;;;;1.35;1.15;;;;;;;34.55;22.99;160276.34;1926819;74;21138;-81
2021/04/26 01:22:23;;;;;;;1.22;0.95;;;;;;;34.54;23.07;160273.72;1931503;74;21808;-82
2021/04/26 01:25:13;;;;;;;1.75;1.00;;;;;;;34.54;23.15;160275.03;1883923;76;21331;-83
2021/04/26 01:28:07;;;;;;;1.40;1.02;;;;;;;34.47;23.27;160254.97;1926667;74;21158;-82
2021/04/26 01:31:10;;;;;;;3.05;1.05;;;;;;;34.47;23.34;160256.34;1923321;74;21859;-81
2021/04/26 01:33:53;;;;;;;1.30;1.00;;;;;;;34.23;23.58;160190.83;1919247;75;21379;-82
2021/04/26 01:36:29;;;;;;;3.15;1.10;;;;;;;33.87;23.86;160094.58;1916832;74;21989;-82
2021/04/26 01:39:01;;;;;;;2.40;1.20;;;;;;;33.77;24.08;160067.88;1920544;75;21134;-82
2021/04/26 01:41:34;;;;;;;2.58;1.02;;;;;;;33.66;24.21;160037.17;1920501;75;21763;-81
2021/04/26 01:44:07;;;;;;;2.33;1.35;;;;;;;33.66;24.28;160038.48;1920314;74;21323;-81
2021/04/26 01:46:41;;;;;;;2.45;1.07;;;;;;;33.46;24.43;159983.66;1920591;75;21293;-81
2021/04/26 01:49:14;;;;;;;2.52;1.42;;;;;;;33.38;24.61;159962.31;1909866;75;21158;-80
2021/04/26 01:51:47;;;;;;;5.10;1.30;;;;;;;33.91;24.25;160105.28;1882381;74;21301;-81
2021/04/26 01:54:20;;;;;;;1.75;1.32;;;;;;;33.69;24.40;160046.52;1848895;76;21301;-81
2021/04/26 01:56:52;;;;;;;2.52;1.25;;;;;;;33.78;24.39;160069.23;1865558;77;21326;-80
2021/04/26 01:59:25;;;;;;;2.72;1.40;;;;;;;33.87;24.36;160093.27;1879162;76;21415;-80
2021/04/26 02:01:58;;;;;;;1.72;1.22;;;;;;;33.95;24.31;160115.98;1869003;76;21337;-80
2021/04/26 02:04:33;;;;;;;1.42;1.10;;;;;;;33.95;24.26;160115.98;1894748;76;21217;-81
2021/04/26 02:07:10;;;;;;;1.85;1.30;;;;;;;33.89;24.27;160099.92;1890120;76;21344;-81
2021/04/26 02:10:00;;;;;;;2.77;1.42;;;;;;;33.88;24.31;160095.94;1848580;77;21216;-82
2021/04/26 02:12:33;;;;;;;5.45;1.50;;;;;;;33.92;24.27;160107.95;1890689;76;21353;-81
2021/04/26 02:15:12;;;;;;;1.75;1.12;;;;;;;34.01;24.27;160132.00;1890659;76;21158;-80
2021/04/26 02:17:45;;;;;;;2.00;1.20;;;;;;;34.08;24.16;160150.72;1893761;75;21274;-81
2021/04/26 02:20:19;;;;;;;1.75;1.10;;;;;;;34.07;24.18;160148.06;1912359;75;21340;-82
2021/04/26 02:22:52;;;;;;;3.90;1.12;;;;;;;34.06;24.21;160144.02;1836182;78;21344;-82
2021/04/26 02:25:25;;;;;;;2.25;1.20;;;;;;;34.08;24.18;160150.72;1910007;75;21348;-82
2021/04/26 02:27:57;;;;;;;2.33;1.10;;;;;;;34.10;24.19;160154.78;1868604;76;21251;-81
2021/04/26 02:30:29;;;;;;;1.98;1.17;;;;;;;34.06;24.22;160145.37;1884715;76;21283;-82
2021/04/26 02:33:20;;;;;;;2.47;1.27;;;;;;;34.01;24.25;160132.00;1885162;76;21278;-81
2021/04/26 02:36:00;;;;;;;3.45;1.22;;;;;;;34.12;24.17;160160.13;1846511;77;21331;-81
2021/04/26 02:38:40;;;;;;;2.15;1.30;;;;;;;34.05;24.29;160141.34;1884461;76;21688;-81
2021/04/26 02:41:19;;;;;;;3.65;1.42;;;;;;;34.31;24.10;160213.56;1892351;74;21273;-81
2021/04/26 02:44:19;;;;;;;2.45;1.57;;;;;;;34.29;24.04;160208.20;1899085;75;21756;-81
2021/04/26 02:46:56;;;;;;;1.98;1.60;;;;;;;34.34;23.99;160221.59;1899507;75;21139;-81
2021/04/26 02:49:29;;;;;;;4.47;2.22;;;;;;;34.36;23.96;160225.58;1864455;76;21150;-81
2021/04/26 02:52:02;;;;;;;3.52;1.65;;;;;;;34.14;24.07;160168.09;1899757;75;21312;-82
2021/04/26 02:54:38;;;;;;;2.10;1.40;;;;;;;34.06;24.13;160144.02;1898657;75;21354;-81
2021/04/26 02:57:10;;;;;;;3.62;1.90;;;;;;;33.96;24.16;160118.66;1898155;75;21303;-81
2021/04/26 02:59:43;;;;;;;2.50;1.40;;;;;;;33.92;24.27;160106.59;1898120;75;21181;-80
2021/04/26 03:02:16;;;;;;;1.70;1.40;;;;;;;33.88;24.33;160095.94;1833965;75;21157;-81
2021/04/26 03:05:07;;;;;;;2.10;1.40;;;;;;;33.90;24.21;160101.30;1898337;75;21768;-80
2021/04/26 03:07:42;;;;;;;2.10;1.40;;;;;;;33.83;24.21;160082.56;1898112;75;21173;-81
2021/04/26 03:10:15;;;;;;;2.75;1.50;;;;;;;33.82;24.18;160079.89;1892905;76;21210;-81
2021/04/26 03:12:52;;;;;;;5.72;1.50;;;;;;;33.81;24.24;160077.22;1892538;76;21158;-80
2021/04/26 03:15:29;;;;;;;2.70;1.95;;;;;;;33.77;24.28;160066.56;1892574;76;21289;-80
2021/04/26 03:18:02;;;;;;;3.08;1.72;;;;;;;33.81;24.23;160077.22;1904254;73;21279;-80
2021/04/26 03:20:34;;;;;;;2.17;1.72;;;;;;;33.73;24.32;160057.22;1894562;75;21177;-80
2021/04/26 03:23:09;;;;;;;2.08;1.57;;;;;;;33.69;24.28;160046.52;1879432;75;21792;-79
2021/04/26 03:25:42;;;;;;;2.55;1.67;;;;;;;33.73;24.36;160057.22;1901876;75;21292;-80
2021/04/26 03:28:18;;;;;;;2.77;1.50;;;;;;;33.87;24.27;160094.58;1897147;75;21315;-81
2021/04/26 03:30:52;;;;;;;3.37;2.20;;;;;;;34.40;23.83;160236.28;1895053;76;21335;-80
2021/04/26 03:33:32;;;;;;;1.40;1.30;;;;;;;34.36;23.78;160226.94;1893614;75;21158;-80
2021/04/26 03:36:05;;;;;;;2.22;1.40;;;;;;;34.38;23.77;160232.25;1895030;75;21336;-81
2021/04/26 03:38:38;;;;;;;3.30;1.40;;;;;;;34.30;23.83;160209.56;1895188;74;21198;-82
2021/04/26 03:41:11;;;;;;;2.37;1.50;;;;;;;33.91;24.12;160105.28;1896523;75;21347;-82
2021/04/26 03:43:46;;;;;;;1.92;1.30;;;;;;;33.87;24.13;160093.27;1848679;75;21198;-82
2021/04/26 03:46:21;;;;;;;3.77;1.40;;;;;;;33.89;24.12;160099.92;1876608;75;21213;-81
2021/04/26 03:49:11;;;;;;;3.45;1.65;;;;;;;33.73;24.17;160055.84;1900857;75;21308;-81
2021/04/26 03:51:45;;;;;;;2.60;1.37;;;;;;;33.59;24.26;160019.75;1800094;76;21398;-82
2021/04/26 03:54:25;;;;;;;2.58;1.40;;;;;;;33.56;24.28;160011.72;1836549;76;21269;-81
2021/04/26 03:56:57;;;;;;;1.77;1.35;;;;;;;33.62;24.25;160027.78;1885783;76;21348;-82
2021/04/26 03:59:30;;;;;;;1.55;1.20;;;;;;;33.61;24.29;160023.80;1885469;76;21245;-85
2021/04/26 04:02:03;;;;;;;1.98;1.25;;;;;;;33.71;24.20;160050.50;1883009;75;21284;-80
2021/04/26 04:04:39;;;;;;;3.05;1.60;;;;;;;33.67;24.22;160039.84;1870695;75;21351;-77
2021/04/26 04:07:32;;;;;;;3.67;1.80;;;;;;;33.74;24.16;160058.53;1867238;75;21353;-87
2021/04/26 04:10:15;;;;;;;2.55;1.40;;;;;;;33.71;24.17;160051.88;1871105;75;21210;-83
2021/04/26 04:12:49;;;;;;;2.02;1.47;;;;;;;33.68;24.19;160042.53;1855947;75;21752;-82
2021/04/26 04:15:22;;;;;;;1.02;0.98;;;;;;;33.62;24.27;160026.47;1866527;75;21375;-85
2021/04/26 04:17:57;;;;;;;1.92;1.37;;;;;;;33.74;24.21;160058.53;1900572;75;21174;-79
2021/04/26 04:20:32;;;;;;;3.72;1.55;;;;;;;33.78;24.18;160069.23;1894250;75;21166;-80
2021/04/26 04:23:05;;;;;;;2.70;1.70;;;;;;;33.83;24.18;160082.56;1897312;75;21349;-78
2021/04/26 04:25:39;;;;;;;4.03;1.65;;;;;;;33.85;24.10;160087.91;1894980;75;21297;-78
2021/04/26 04:28:11;;;;;;;2.33;1.42;;;;;;;33.87;24.13;160093.27;1894363;76;21356;-78
2021/04/26 04:30:47;;;;;;;2.62;1.50;;;;;;;33.94;24.10;160113.31;1893275;76;21155;-75
2021/04/26 04:33:20;;;;;;;2.15;1.30;;;;;;;34.05;24.13;160142.70;1896100;75;21739;-78
2021/04/26 04:36:11;;;;;;;2.80;1.40;;;;;;;34.09;24.05;160153.41;1895148;75;21224;-78
2021/04/26 04:39:00;;;;;;;2.62;1.45;;;;;;;34.18;24.20;160177.50;1902524;75;21323;-76
2021/04/26 04:41:46;;;;;;;2.15;1.22;;;;;;;34.25;24.03;160196.19;1856994;75;21313;-76
2021/04/26 04:44:19;;;;;;;2.67;1.67;;;;;;;34.39;23.98;160234.92;1891902;75;21835;-80
2021/04/26 04:46:52;;;;;;;3.15;2.05;;;;;;;34.60;23.91;160289.78;1875896;75;21338;-82
2021/04/26 04:49:26;;;;;;;1.82;1.40;;;;;;;34.54;23.96;160275.03;1879260;75;21339;-82
2021/04/26 04:51:58;;;;;;;1.90;1.40;;;;;;;34.58;23.94;160284.44;1876615;75;21846;-85
2021/04/26 04:54:31;;;;;;;9.48;4.45;;;;;;;34.70;23.96;160317.88;1877188;75;21874;-79
2021/04/26 04:57:07;;;;;;;4.83;2.77;;;;;;;34.78;23.94;160339.25;1879554;74;21443;-81
2021/04/26 04:59:41;;;;;;;4.87;3.33;;;;;;;34.85;23.83;160357.94;1875574;75;21296;-85
2021/04/26 05:02:15;;;;;;;3.67;2.60;;;;;;;34.83;23.84;160351.28;1878311;75;21379;-79
2021/04/26 05:05:06;;;;;;;4.47;2.05;;;;;;;34.78;23.88;160339.25;1903869;75;21153;-75
2021/04/26 05:07:56;;;;;;;2.65;2.08;;;;;;;34.77;23.88;160335.25;1889073;75;21224;-80
2021/04/26 05:10:47;;;;;;;3.70;2.37;;;;;;;34.82;23.83;160348.59;1900711;75;21147;-80
2021/04/26 05:13:32;;;;;;;4.05;1.77;;;;;;;35.00;23.71;160396.75;1904776;75;21134;-80
2021/04/26 05:16:06;;;;;;;4.78;3.30;;;;;;;34.98;23.68;160391.39;1901258;74;22029;-82
2021/04/26 05:18:39;;;;;;;3.22;1.70;;;;;;;35.36;23.38;160494.39;1903846;75;21382;-80
2021/04/26 05:21:12;;;;;;;1.82;1.45;;;;;;;34.95;23.55;160383.36;1903989;75;21185;-82
2021/04/26 05:23:44;;;;;;;1.75;1.60;;;;;;;34.65;23.72;160304.48;1903143;75;21283;-81
2021/04/26 05:26:17;;;;;;;1.95;1.20;;;;;;;34.56;23.69;160279.03;1904494;75;21697;-80
2021/04/26 05:28:50;;;;;;;2.30;1.47;;;;;;;34.63;23.62;160297.81;1905190;75;21280;-81
2021/04/26 05:31:22;;;;;;;2.08;1.15;;;;;;;34.64;23.77;160301.81;1905493;75;21192;-80
2021/04/26 05:33:55;;;;;;;1.72;1.27;;;;;;;34.74;23.84;160328.53;1905404;75;21284;-81
2021/04/26 05:36:29;;;;;;;2.33;1.40;;;;;;;35.41;23.27;160509.09;1904086;75;21201;-81
2021/04/26 05:39:06;;;;;;;2.60;1.45;;;;;;;34.94;23.46;160382.05;1901778;75;21320;-80
2021/04/26 05:41:39;;;;;;;3.58;1.27;;;;;;;34.67;23.48;160309.84;1895074;75;21233;-80
2021/04/26 05:44:12;;;;;;;1.98;1.37;;;;;;;34.43;23.81;160245.63;1895146;76;21185;-83
2021/04/26 05:46:59;;;;;;;3.55;1.55;;;;;;;34.45;23.85;160249.63;1819493;76;21345;-80
2021/04/26 05:49:31;;;;;;;1.55;1.40;;;;;;;34.50;23.83;160264.31;1880083;76;21167;-81
2021/04/26 05:52:05;;;;;;;1.95;1.40;;;;;;;34.61;23.85;160292.47;1867201;76;21285;-81
2021/04/26 05:54:37;;;;;;;2.85;1.52;;;;;;;34.77;23.85;160336.56;1896826;75;21229;-81
2021/04/26 05:57:10;;;;;;;1.98;1.50;;;;;;;34.67;23.83;160309.84;1887022;76;21317;-79
2021/04/26 05:59:43;;;;;;;2.87;1.80;;;;;;;34.60;23.85;160291.16;1886715;76;21185;-81
2021/04/26 06:02:15;;;;;;;2.00;1.70;;;;;;;34.58;23.86;160285.80;1890701;75;21296;-81
2021/04/26 06:04:48;;;;;;;3.85;2.27;;;;;;;34.61;23.88;160292.47;1895386;76;21320;-81
2021/04/26 06:07:20;;;;;;;5.53;1.60;;;;;;;34.51;23.85;160265.69;1889573;76;21202;-79
2021/04/26 06:09:53;;;;;;;2.20;1.40;;;;;;;34.48;23.61;160259.02;1865946;77;21147;-80
2021/04/26 06:12:26;;;;;;;2.33;1.82;;;;;;;34.40;23.95;160236.28;1879137;76;21150;-80
2021/04/26 06:14:59;;;;;;;2.00;1.80;;;;;;;34.41;23.87;160238.97;1865915;77;21139;-81
2021/04/26 06:17:31;;;;;;;2.33;1.60;;;;;;;34.42;23.86;160242.95;1860059;77;21217;-84
2021/04/26 06:20:04;;;;;;;2.22;1.60;;;;;;;34.54;23.91;160275.03;1860441;77;21213;-86
2021/04/26 06:22:36;;;;;;;3.20;1.57;;;;;;;34.67;23.79;160308.47;1887936;75;21766;-87
2021/04/26 06:25:09;;;;;;;2.70;1.80;;;;;;;34.78;23.52;160339.25;1879229;75;21330;-87
2021/04/26 06:27:43;;;;;;;4.67;2.27;;;;;;;34.88;23.57;160364.66;1888126;76;21351;-70
2021/04/26 06:30:17;;;;;;;4.78;4.10;;;;;;;35.02;23.62;160403.42;1887008;74;21158;-79
2021/04/26 06:32:50;;;;;;;6.35;4.70;;;;;;;35.26;23.46;160468.97;1869290;75;21681;-77
2021/04/26 06:35:22;;;;;;;6.92;4.55;;;;;;;35.41;23.37;160507.78;1859951;75;21311;-74
2021/04/26 06:37:55;;;;;;;5.58;5.03;;;;;;;35.57;23.29;160551.97;1857182;76;21296;-78
2021/04/26 06:40:27;;;;;;;6.90;5.00;;;;;;;35.97;23.17;160657.62;1881132;73;21208;-81
2021/04/26 06:42:59;;;;;;;7.03;4.95;;;;;;;36.13;23.19;160703.16;1888550;73;21360;-81
2021/04/26 06:45:32;;;;;;;7.47;4.08;;;;;;;37.39;22.42;161040.59;1865793;75;21307;-76
2021/04/26 06:48:05;;;;;;;4.42;4.03;;;;;;;37.62;22.09;161102.20;1900626;73;21157;-76
2021/04/26 06:50:38;;;;;;;5.58;4.35;;;;;;;37.81;21.94;161154.50;1863789;76;21299;-76
2021/04/26 06:53:11;;;;;;;7.72;3.92;;;;;;;37.81;21.80;161153.19;1857977;74;21411;-78
2021/04/26 06:55:44;;;;;;;4.80;3.95;;;;;;;38.55;21.37;161354.19;1896236;73;21367;-76
2021/04/26 06:58:17;;;;;;;3.62;3.00;;;;;;;38.35;21.73;161299.28;1903692;74;21319;-78
2021/04/26 07:00:49;;;;;;;3.45;2.62;;;;;;;38.56;21.62;161356.86;1900855;73;21329;-75
2021/04/26 07:03:22;;;;;;;5.55;3.00;;;;;;;38.74;21.54;161405.19;1898980;73;21343;-73
2021/04/26 07:05:54;;;;;;;4.28;2.90;;;;;;;38.85;21.49;161433.31;1899481;73;21149;-75
2021/04/26 07:08:28;;;;;;;5.83;3.75;;;;;;;39.00;21.50;161474.91;1898362;73;21260;-79
2021/04/26 07:11:01;;;;;;;5.35;3.98;;;;;;;38.95;21.44;161462.78;1896596;73;21819;-75
2021/04/26 07:13:34;;;;;;;3.58;2.75;;;;;;;39.06;21.40;161490.97;1898884;73;21284;-70
2021/04/26 07:16:06;;;;;;;4.60;3.47;;;;;;;38.75;20.87;161406.50;1865091;75;21291;-72
2021/04/26 07:18:39;;;;;;;4.90;3.17;;;;;;;38.15;21.02;161245.59;1898884;73;21308;-71
2021/04/26 07:21:13;;;;;;;5.35;3.75;;;;;;;37.80;21.37;161150.50;1902330;73;21339;-71
2021/04/26 07:23:47;;;;;;;7.20;5.22;;;;;;;37.83;21.51;161158.56;1905638;73;21708;-71
2021/04/26 07:26:20;;;;;;;11.68;6.47;;;;;;;37.98;21.60;161200.06;1900229;73;21351;-74
2021/04/26 07:28:53;;;;;;;11.68;5.42;;;;;;;38.14;21.51;161244.28;1866705;75;21166;-73
2021/04/26 07:31:25;;;;;;;6.62;4.78;;;;;;;38.03;20.93;161214.81;1898128;74;21192;-73
2021/04/26 07:33:58;;;;;;;11.43;5.75;;;;;;;37.64;20.94;161107.58;1900312;73;21743;-76
2021/04/26 07:36:30;;;;;;;9.93;6.28;;;;;;;37.47;20.84;161062.06;1897287;73;21189;-75
2021/04/26 07:39:03;;;;;;;8.60;6.25;;;;;;;37.48;21.34;161064.75;1903468;74;21332;-75
2021/04/26 07:41:36;;;;;;;13.35;6.47;;;;;;;37.79;21.38;161149.12;1897179;74;21323;-74
2021/04/26 07:44:09;;;;;;;9.88;6.60;;;;;;;38.13;21.39;161241.59;1901967;73;21201;-74
2021/04/26 07:46:41;;;;;;;13.68;6.95;;;;;;;38.31;21.26;161289.86;1898299;74;21362;-75
2021/04/26 07:49:14;;;;;;;13.35;5.95;;;;;;;38.47;20.58;161331.44;1896576;73;21299;-73
2021/04/26 07:51:46;;;;;;;10.80;5.53;;;;;;;38.27;20.43;161277.81;1898180;73;21137;-74
2021/04/26 07:54:19;;;;;;;15.53;6.05;;;;;;;38.29;20.98;161283.17;1905170;73;21142;-73
2021/04/26 07:56:51;;;;;;;13.40;6.87;;;;;;;37.99;20.95;161204.08;1901648;73;21319;-74
2021/04/26 07:59:24;;;;;;;16.42;6.40;;;;;;;38.06;21.05;161222.86;1864589;75;21307;-74
2021/04/26 08:01:56;;;;;;;13.95;6.33;;;;;;;38.18;21.36;161253.64;1903334;74;21299;-73
2021/04/26 08:04:29;;;;;;;15.95;6.08;;;;;;;38.45;21.28;161326.06;1867485;75;21571;-74
2021/04/26 08:07:02;;;;;;;8.40;4.55;;;;;;;38.91;20.97;161449.42;1900602;73;21323;-74
2021/04/26 08:09:34;;;;;;;15.05;6.45;;;;;;;38.90;20.25;161448.05;1901628;74;21381;-72
2021/04/26 08:12:07;;;;;;;10.20;4.78;;;;;;;38.80;21.23;161421.25;1899237;73;21839;-73
2021/04/26 08:14:39;;;;;;;10.18;4.35;;;;;;;39.00;20.30;161476.22;1897581;74;21660;-73
2021/04/26 08:17:11;;;;;;;12.55;4.83;;;;;;;39.11;20.64;161504.44;1895304;74;21287;-74
2021/04/26 08:19:44;;;;;;;10.30;4.70;;;;;;;39.61;21.02;161638.53;1896086;74;21280;-71
2021/04/26 08:22:16;;;;;;;11.28;4.10;;;;;;;39.95;20.41;161731.16;1898572;73;21283;-77
2021/04/26 08:24:48;;;;;;;9.53;4.12;;;;;;;40.36;20.14;161842.55;1897893;73;21165;-75
2021/04/26 08:27:20;;;;;;;7.72;4.40;;;;;;;40.89;20.41;161984.81;1898964;73;21141;-75
2021/04/26 08:29:53;;;;;;;7.70;3.45;;;;;;;41.50;20.05;162149.97;1896649;73;21355;-75
2021/04/26 08:32:26;;;;;;;7.75;3.27;;;;;;;41.97;19.58;162277.67;1897746;73;21878;-77
2021/04/26 08:34:59;;;;;;;4.22;2.83;;;;;;;41.98;18.58;162280.36;1899305;73;21337;-77
2021/04/26 08:37:31;;;;;;;4.42;2.87;;;;;;;41.67;18.75;162195.69;1897723;73;21904;-77
2021/04/26 08:40:05;;;;;;;4.72;2.35;;;;;;;41.44;18.68;162132.52;1910261;73;21189;-77
2021/04/26 08:42:38;;;;;;;2.42;1.70;;;;;;;41.27;17.89;162088.22;1901717;73;21731;-78
2021/04/26 08:45:12;;;;;;;3.47;1.87;;;;;;;41.23;18.15;162076.14;1864390;75;21157;-79
2021/04/26 08:47:44;;;;;;;5.60;2.12;;;;;;;41.41;18.43;162125.81;1900762;73;21174;-77
2021/04/26 08:50:17;;;;;;;3.00;1.95;;;;;;;41.62;17.69;162180.92;1902465;73;21351;-75
2021/04/26 08:52:49;;;;;;;5.58;2.90;;;;;;;41.67;18.22;162194.37;1896826;74;21288;-77
2021/04/26 08:55:22;;;;;;;3.35;1.57;;;;;;;42.04;17.99;162295.12;1899843;73;21355;-75
2021/04/26 08:57:54;;;;;;;2.72;1.40;;;;;;;41.96;17.32;162274.98;1894827;74;21161;-78
2021/04/26 09:00:27;;;;;;;2.95;1.37;;;;;;;41.75;16.82;162217.16;1902105;74;21323;-74
2021/04/26 09:03:01;;;;;;;1.42;1.00;;;;;;;41.29;16.56;162092.28;1895345;74;21297;-79
2021/04/26 09:05:46;;;;;;;2.50;1.12;;;;;;;41.12;16.63;162046.56;1900905;73;21327;-75
2021/04/26 09:08:29;;;;;;;1.60;0.90;;;;;;;40.92;16.17;161994.20;1913699;73;21624;-76
2021/04/26 09:11:08;;;;;;;1.25;0.80;;;;;;;40.94;16.05;161998.27;1907974;74;21660;-72
2021/04/26 09:13:44;;;;;;;2.12;0.70;;;;;;;40.92;15.82;161994.20;1901753;73;21209;-74
2021/04/26 09:16:22;;;;;;;0.65;0.60;;;;;;;41.03;16.48;162023.72;1895249;74;21307;-73
2021/04/26 09:18:56;;;;;;;0.68;0.68;;;;;;;41.31;15.77;162098.97;1900193;73;22928;-74
2021/04/26 09:21:44;;;;;;;1.17;0.65;;;;;;;41.30;15.23;162096.28;1861283;75;21240;-73
2021/04/26 09:24:25;;;;;;;0.80;0.70;;;;;;;41.32;15.36;162101.66;1908338;74;21331;-74
2021/04/26 09:27:14;;;;;;;1.37;0.90;;;;;;;41.47;15.40;162140.58;1900377;73;21340;-73
2021/04/26 09:29:46;;;;;;;1.27;0.68;;;;;;;41.75;15.03;162215.84;1897561;73;21345;-72
2021/04/26 09:32:22;;;;;;;1.37;0.75;;;;;;;42.22;14.98;162343.47;1898440;73;21352;-73
2021/04/26 09:34:55;;;;;;;0.57;0.57;;;;;;;42.80;15.45;162500.77;1863978;74;21705;-72
2021/04/26 09:37:30;;;;;;;1.98;1.12;;;;;;;43.26;14.58;162625.78;1900843;73;21783;-76
2021/04/26 09:40:14;;;;;;;0.72;0.70;;;;;;;42.99;15.00;162551.81;1894351;74;21375;-75
2021/04/26 09:42:53;;;;;;;0.60;0.60;;;;;;;42.66;15.21;162463.09;1895545;74;21676;-76
2021/04/26 09:45:40;;;;;;;2.80;0.80;;;;;;;42.55;15.03;162433.53;1890088;74;21835;-78
2021/04/26 09:48:20;;;;;;;0.85;0.68;;;;;;;42.74;15.45;162483.30;1885554;74;21134;-72
2021/04/26 09:51:01;;;;;;;1.67;0.75;;;;;;;43.76;14.46;162760.25;1889522;74;21379;-72
2021/04/26 09:53:46;;;;;;;0.88;0.70;;;;;;;45.72;13.80;163290.52;1885965;74;21146;-72
2021/04/26 09:56:26;;;;;;;2.42;0.85;;;;;;;47.42;13.53;163751.30;1876692;74;21217;-74
2021/04/26 09:59:02;;;;;;;0.90;0.68;;;;;;;46.66;14.52;163545.11;1851336;76;21379;-76
2021/04/26 10:01:36;;;;;;;1.40;0.70;;;;;;;45.03;13.93;163103.39;1886882;73;21193;-73
2021/04/26 10:04:17;;;;;;;2.50;1.00;;;;;;;43.48;14.24;162683.58;1890182;74;21288;-72
2021/04/26 10:06:44;;;;;;;2.15;1.07;;;;;;;41.91;14.84;162261.47;1888157;74;21579;-73
2021/04/26 10:09:18;;;;;;;1.35;1.00;;;;;;;39.55;15.40;161622.47;1889611;74;21776;-70
2021/04/26 10:11:50;;;;;;;1.10;0.80;;;;;;;38.42;15.93;161319.38;1889921;74;21355;-68
2021/04/26 10:14:23;;;;;;;1.00;0.72;;;;;;;38.24;16.17;161269.80;1889133;74;22428;-68
2021/04/26 10:17:11;;;;;;;1.37;0.80;;;;;;;37.81;17.02;161153.19;1892594;74;21832;-73
2021/04/26 10:19:50;;;;;;;1.82;0.82;;;;;;;37.85;16.77;161165.23;1889380;74;21363;-71
2021/04/26 10:22:38;;;;;;;3.75;1.22;;;;;;;37.15;17.02;160977.64;1887757;74;21343;-74
2021/04/26 10:25:14;;;;;;;3.87;1.20;;;;;;;37.06;16.79;160952.19;1891729;74;21866;-72
2021/04/26 10:27:48;;;;;;;0.90;0.80;;;;;;;36.79;17.16;160879.87;1856020;76;21775;-75
2021/04/26 10:30:20;;;;;;;2.70;0.70;;;;;;;37.23;17.30;160997.73;1896667;73;21292;-74
2021/04/26 10:33:07;;;;;;;0.78;0.68;;;;;;;37.79;17.00;161149.12;1894502;73;21280;-73
2021/04/26 10:35:48;;;;;;;0.93;0.70;;;;;;;38.20;16.37;161259.02;1887854;74;21312;-73
2021/04/26 10:38:46;;;;;;;0.78;0.62;;;;;;;38.62;16.52;161371.61;1887283;74;21194;-77
2021/04/26 10:42:00;;;;;;;3.60;0.68;;;;;;;38.97;15.56;161466.84;1890709;73;21198;-76
2021/04/26 10:44:46;;;;;;;0.98;0.68;;;;;;;39.57;15.42;161629.16;1885613;73;21160;-78
2021/04/26 10:47:24;;;;;;;1.67;0.72;;;;;;;39.95;14.86;161731.16;1880684;73;21174;-75
2021/04/26 10:50:08;;;;;;;1.55;0.80;;;;;;;39.73;15.01;161670.72;1877605;75;21297;-76
2021/04/26 10:52:46;;;;;;;1.02;0.60;;;;;;;39.72;15.39;161669.41;1877463;75;21847;-73
2021/04/26 10:55:25;;;;;;;1.57;0.72;;;;;;;40.03;15.17;161753.97;1887193;75;21352;-75
2021/04/26 10:57:59;;;;;;;1.32;0.95;;;;;;;40.60;15.07;161905.59;1880354;75;21344;-76
2021/04/26 11:00:44;;;;;;;1.95;0.78;;;;;;;41.74;15.14;162214.47;1877293;74;21404;-75
2021/04/26 11:03:29;;;;;;;1.05;0.70;;;;;;;43.40;14.82;162663.42;1879324;74;21138;-75
2021/04/26 11:06:09;;;;;;;1.65;1.00;;;;;;;43.49;14.01;162686.28;1878678;75;21142;-76
2021/04/26 11:14:04;;;;;;;1.60;0.82;;;;;;;40.98;14.88;162008.97;1848675;74;21312;-75
2021/04/26 11:17:05;;;;;;;1.47;0.88;;;;;;;39.85;15.57;161702.91;1805642;76;21312;-77
2021/04/26 11:20:09;;;;;;;1.17;0.98;;;;;;;39.35;15.98;161570.13;1801549;77;21181;-77
2021/04/26 11:22:42;;;;;;;1.50;0.70;;;;;;;39.30;16.12;161556.69;1804454;76;21762;-78
2021/04/26 11:25:37;;;;;;;1.32;0.98;;;;;;;39.61;16.16;161639.91;1839105;75;22827;-81
2021/04/26 11:28:11;;;;;;;0.75;0.50;;;;;;;39.89;16.02;161713.66;1840066;75;21401;-77
2021/04/26 11:30:51;;;;;;;1.40;0.75;;;;;;;40.02;15.54;161749.91;1839509;75;21252;-77
2021/04/26 11:33:23;;;;;;;3.20;1.55;;;;;;;40.06;15.15;161761.98;1845051;75;21204;-77
2021/04/26 11:36:12;;;;;;;0.85;0.70;;;;;;;39.81;15.03;161693.53;1841790;75;22272;-76
2021/04/26 11:38:46;;;;;;;1.75;0.80;;;;;;;39.59;15.33;161634.53;1842834;75;21304;-77
2021/04/26 11:41:19;;;;;;;1.35;0.78;;;;;;;39.58;15.55;161631.84;1841687;75;21186;-83
2021/04/26 11:43:53;;;;;;;0.80;0.72;;;;;;;39.93;15.54;161727.09;1843532;76;21366;-80
2021/04/26 11:46:27;;;;;;;2.80;0.80;;;;;;;40.69;15.15;161929.72;1840101;77;21197;-80
2021/04/26 11:49:22;;;;;;;1.35;0.88;;;;;;;41.77;15.30;162222.55;1871866;75;21157;-79
2021/04/26 11:51:58;;;;;;;1.17;0.80;;;;;;;43.70;14.66;162742.78;1870802;75;21918;-80
2021/04/26 11:54:31;;;;;;;1.60;0.85;;;;;;;46.22;13.87;163425.25;1872324;75;21197;-81
2021/04/26 11:57:31;;;;;;;2.12;0.60;;;;;;;47.68;13.19;163820.09;1873227;75;21331;-77
2021/04/26 12:00:06;;;;;;;2.15;0.80;;;;;;;48.10;13.34;163934.64;1875741;75;21245;-79
2021/04/26 12:02:49;;;;;;;1.22;0.90;;;;;;;47.06;13.19;163652.92;1865879;75;21359;-79
2021/04/26 12:05:24;;;;;;;3.00;1.20;;;;;;;45.53;13.39;163239.39;1868814;75;21319;-77
2021/04/26 12:07:57;;;;;;;1.27;0.78;;;;;;;43.63;13.86;162723.98;1870430;75;21427;-76
2021/04/26 12:10:39;;;;;;;1.62;0.90;;;;;;;42.18;14.42;162334.06;1868042;75;21888;-78
2021/04/26 12:13:06;;;;;;;3.37;1.02;;;;;;;41.13;14.77;162049.25;1868840;75;21847;-79
2021/04/26 12:15:41;;;;;;;3.15;1.90;;;;;;;40.36;15.15;161841.19;1875184;75;21154;-79